createdAt,value
2022-09-09T00:02:28.732Z,57.41
2022-09-09T00:05:45.558Z,56.43
2022-09-09T00:09:02.425Z,56.57
2022-09-09T00:12:24.133Z,56.90
2022-09-09T00:15:42.026Z,56.39
2022-09-09T00:19:04.795Z,57.20
2022-09-09T00:22:21.974Z,57.14
2022-09-09T00:25:38.690Z,57.73
2022-09-09T00:28:53.800Z,57.39
2022-09-09T00:32:01.310Z,57.29
2022-09-09T00:35:19.672Z,56.92
2022-09-09T00:38:42.597Z,56.69
2022-09-09T00:42:03.223Z,56.73
2022-09-09T00:45:10.996Z,56.97
2022-09-09T00:48:13.458Z,56.93
2022-09-09T00:51:32.112Z,57.55
2022-09-09T00:55:09.174Z,57.85
2022-09-09T00:58:11.266Z,57.71
2022-09-09T01:01:14.335Z,57.86
2022-09-09T01:04:30.197Z,57.10
2022-09-09T01:07:33.460Z,57.02
2022-09-09T01:11:04.584Z,57.30
2022-09-09T01:14:26.815Z,57.77
2022-09-09T01:17:36.764Z,57.85
2022-09-09T01:20:58.079Z,57.08
2022-09-09T01:24:17.883Z,57.46
2022-09-09T01:27:52.237Z,57.20
2022-09-09T01:30:56.170Z,57.00
2022-09-09T01:34:02.303Z,57.34
2022-09-09T01:37:08.451Z,58.09
2022-09-09T01:40:10.608Z,57.76
2022-09-09T01:43:14.341Z,57.23
2022-09-09T01:46:17.649Z,57.51
2022-09-09T01:49:19.912Z,56.90
2022-09-09T01:52:22.706Z,57.77
2022-09-09T01:55:38.623Z,57.81
2022-09-09T01:59:12.679Z,57.36
2022-09-09T02:02:43.313Z,56.90
2022-09-09T02:06:10.196Z,57.00
2022-09-09T02:09:14.175Z,57.42
2022-09-09T02:12:23.705Z,57.28
2022-09-09T02:15:55.794Z,57.03
2022-09-09T02:19:10.207Z,57.64
2022-09-09T02:22:25.413Z,56.95
2022-09-09T02:25:33.555Z,57.22
2022-09-09T02:28:45.779Z,57.39
2022-09-09T02:31:50.970Z,57.88
2022-09-09T02:35:02.051Z,57.53
2022-09-09T02:38:10.253Z,57.80
2022-09-09T02:41:13.009Z,57.67
2022-09-09T02:44:19.094Z,57.05
2022-09-09T02:47:30.962Z,56.81
2022-09-09T02:50:59.621Z,57.07
2022-09-09T02:54:18.112Z,57.88
2022-09-09T02:57:32.208Z,58.00
2022-09-09T03:00:37.058Z,57.62
2022-09-09T03:03:39.494Z,57.34
2022-09-09T03:06:45.923Z,57.75
2022-09-09T03:09:55.122Z,56.65
2022-09-09T03:12:59.314Z,56.79
2022-09-09T03:16:05.055Z,57.74
2022-09-09T03:19:10.829Z,57.42
2022-09-09T03:22:14.876Z,56.49
2022-09-09T03:25:19.567Z,57.94
2022-09-09T03:28:22.515Z,57.23
2022-09-09T03:31:26.706Z,56.86
2022-09-09T03:34:28.926Z,56.70
2022-09-09T03:37:33.881Z,56.52
2022-09-09T03:40:36.355Z,56.91
2022-09-09T03:43:38.776Z,56.83
2022-09-09T03:46:40.953Z,56.82
2022-09-09T03:49:43.010Z,56.59
2022-09-09T03:52:45.461Z,57.69
2022-09-09T03:55:56.354Z,57.37
2022-09-09T03:59:00.578Z,57.39
2022-09-09T04:02:03.902Z,57.45
2022-09-09T04:05:08.102Z,56.92
2022-09-09T04:08:10.223Z,57.45
2022-09-09T04:11:12.379Z,57.42
2022-09-09T04:14:14.729Z,57.75
2022-09-09T04:17:17.328Z,57.39
2022-09-09T04:20:20.537Z,57.04
2022-09-09T04:23:22.647Z,56.44
2022-09-09T04:26:25.144Z,57.14
2022-09-09T04:29:27.869Z,56.43
2022-09-09T04:32:30.051Z,56.95
2022-09-09T04:35:32.075Z,56.86
2022-09-09T04:38:34.181Z,57.40
2022-09-09T04:41:37.059Z,57.26
2022-09-09T04:44:40.431Z,57.62
2022-09-09T04:47:42.563Z,57.39
2022-09-09T04:50:44.762Z,56.42
2022-09-09T04:53:48.763Z,56.47
2022-09-09T04:56:52.428Z,57.35
2022-09-09T04:59:54.557Z,58.80
2022-09-09T05:02:57.097Z,60.39
2022-09-09T05:06:09.510Z,61.52
2022-09-09T05:12:30.382Z,60.37
2022-09-09T05:15:32.633Z,60.31
2022-09-09T05:18:34.835Z,59.08
2022-09-09T05:21:37.155Z,58.75
2022-09-09T05:24:39.848Z,58.27
2022-09-09T05:27:42.678Z,58.60
2022-09-09T05:30:44.808Z,58.19
2022-09-09T05:33:49.236Z,58.64
2022-09-09T05:36:53.159Z,58.77
2022-09-09T05:39:57.307Z,58.61
2022-09-09T05:43:01.436Z,58.71
2022-09-09T05:46:07.539Z,58.97
2022-09-09T05:49:09.722Z,58.82
2022-09-09T05:52:12.282Z,58.27
2022-09-09T05:55:14.958Z,58.31
2022-09-09T05:58:17.955Z,58.48
2022-09-09T06:01:23.085Z,59.18
2022-09-09T06:04:25.453Z,59.73
2022-09-09T06:07:27.482Z,58.84
2022-09-09T06:10:30.014Z,59.81
2022-09-09T06:13:32.751Z,59.34
2022-09-09T06:16:36.017Z,59.97
2022-09-09T06:19:38.354Z,59.53
2022-09-09T06:22:42.160Z,60.52
2022-09-09T06:25:44.414Z,59.97
2022-09-09T06:28:51.207Z,60.73
2022-09-09T06:31:53.333Z,60.12
2022-09-09T06:34:57.683Z,59.94
2022-09-09T06:38:00.518Z,60.18
2022-09-09T06:41:02.977Z,60.37
2022-09-09T06:44:05.839Z,60.84
2022-09-09T06:47:15.138Z,60.96
2022-09-09T06:50:19.252Z,61.77
2022-09-09T06:53:23.234Z,62.53
2022-09-09T06:56:29.854Z,62.70
2022-09-09T06:59:33.749Z,62.34
2022-09-09T07:02:40.230Z,61.84
2022-09-09T07:05:43.381Z,61.39
2022-09-09T07:08:56.283Z,61.27
2022-09-09T07:12:02.002Z,62.11
2022-09-09T07:15:09.736Z,61.36
2022-09-09T07:18:11.821Z,61.88
2022-09-09T07:21:15.549Z,61.49
2022-09-09T07:24:18.300Z,61.04
2022-09-09T07:27:22.292Z,60.48
2022-09-09T07:30:27.817Z,59.79
2022-09-09T07:33:34.426Z,59.75
2022-09-09T07:36:39.268Z,58.88
2022-09-09T07:39:43.416Z,58.60
2022-09-09T07:42:45.615Z,58.23
2022-09-09T07:45:48.216Z,57.90
2022-09-09T07:48:57.780Z,57.99
2022-09-09T07:52:04.581Z,57.50
2022-09-09T07:55:07.627Z,58.03
2022-09-09T07:58:09.712Z,57.92
2022-09-09T08:01:19.092Z,57.66
2022-09-09T08:04:22.868Z,56.89
2022-09-09T08:07:26.235Z,57.04
2022-09-09T08:10:30.319Z,57.10
2022-09-09T08:13:34.952Z,56.79
2022-09-09T08:16:43.015Z,56.24
2022-09-09T08:19:46.835Z,56.22
2022-09-09T08:22:53.923Z,56.26
2022-09-09T08:25:56.002Z,55.50
2022-09-09T08:29:00.135Z,55.18
2022-09-09T08:32:03.495Z,55.58
2022-09-09T08:35:08.420Z,54.82
2022-09-09T08:38:11.254Z,55.15
2022-09-09T08:41:35.912Z,55.06
2022-09-09T08:44:49.031Z,54.94
2022-09-09T08:47:56.259Z,54.67
2022-09-09T08:51:03.243Z,54.86
2022-09-09T08:54:11.178Z,55.04
2022-09-09T08:57:22.845Z,54.61
2022-09-09T09:00:34.205Z,54.34
2022-09-09T09:03:48.667Z,53.87
2022-09-09T09:07:15.210Z,54.43
2022-09-09T09:10:44.287Z,53.72
2022-09-09T09:14:03.919Z,53.80
2022-09-09T09:17:14.048Z,53.12
2022-09-09T09:20:17.546Z,53.59
2022-09-09T09:23:25.245Z,54.03
2022-09-09T09:26:36.233Z,53.46
2022-09-09T09:30:10.610Z,52.88
2022-09-09T09:33:41.931Z,53.19
2022-09-09T09:36:48.182Z,53.02
2022-09-09T09:40:08.529Z,53.25
2022-09-09T09:43:23.019Z,54.04
2022-09-09T09:46:26.956Z,54.19
2022-09-09T09:49:34.136Z,53.82
2022-09-09T09:52:37.921Z,54.50
2022-09-09T09:55:52.577Z,54.34
2022-09-09T09:58:56.037Z,53.86
2022-09-09T10:02:26.811Z,53.69
2022-09-09T10:05:37.410Z,53.68
2022-09-09T10:08:50.480Z,53.69
2022-09-09T10:12:16.906Z,53.68
2022-09-09T10:15:45.721Z,53.49
2022-09-09T10:19:02.879Z,53.77
2022-09-09T10:22:31.470Z,53.81
2022-09-09T10:25:59.811Z,53.12
2022-09-09T10:29:22.404Z,53.87
2022-09-09T10:32:27.509Z,53.87
2022-09-09T10:35:37.974Z,54.48
2022-09-09T10:38:44.611Z,53.96
2022-09-09T10:42:03.435Z,54.72
2022-09-09T10:45:44.023Z,54.77
2022-09-09T10:48:57.975Z,55.02
2022-09-09T10:52:16.409Z,55.04
2022-09-09T10:55:23.140Z,54.84
2022-09-09T10:58:50.446Z,55.08
2022-09-09T11:02:02.750Z,55.29
2022-09-09T11:05:21.319Z,54.68
2022-09-09T11:08:27.379Z,55.12
2022-09-09T11:11:52.791Z,55.39
2022-09-09T11:15:08.441Z,55.74
2022-09-09T11:18:20.488Z,55.92
2022-09-09T11:21:45.897Z,55.91
2022-09-09T11:24:56.045Z,55.97
2022-09-09T11:28:20.459Z,55.90
2022-09-09T11:31:32.375Z,55.51
2022-09-09T11:34:57.809Z,55.78
2022-09-09T11:38:46.321Z,55.57
2022-09-09T11:41:48.336Z,55.40
2022-09-09T11:44:50.827Z,55.37
2022-09-09T11:47:55.869Z,55.19
2022-09-09T11:51:10.999Z,55.33
2022-09-09T11:54:49.360Z,55.42
2022-09-09T11:58:16.505Z,55.05
2022-09-09T12:01:44.033Z,55.07
2022-09-09T12:04:57.349Z,55.95
2022-09-09T12:08:01.740Z,55.76
2022-09-09T12:11:06.598Z,57.06
2022-09-09T12:14:40.025Z,56.51
2022-09-09T12:17:46.114Z,56.53
2022-09-09T12:21:03.759Z,56.95
2022-09-09T12:24:14.243Z,56.47
2022-09-09T12:27:29.805Z,56.60
2022-09-09T12:30:57.339Z,56.89
2022-09-09T12:34:20.196Z,56.80
2022-09-09T12:37:40.919Z,56.71
2022-09-09T12:40:42.940Z,56.99
2022-09-09T12:43:44.997Z,56.82
2022-09-09T12:46:47.743Z,57.10
2022-09-09T12:49:51.171Z,56.14
2022-09-09T12:52:56.636Z,56.58
2022-09-09T12:56:04.487Z,56.52
2022-09-09T12:59:06.574Z,56.10
2022-09-09T13:02:29.177Z,55.97
2022-09-09T13:05:42.863Z,55.97
2022-09-09T13:08:45.224Z,56.31
2022-09-09T13:11:54.221Z,56.66
2022-09-09T13:14:58.002Z,56.74
2022-09-09T13:18:06.251Z,57.39
2022-09-09T13:21:08.711Z,57.12
2022-09-09T13:24:34.108Z,57.09
2022-09-09T13:27:41.500Z,57.46
2022-09-09T13:30:45.218Z,57.58
2022-09-09T13:33:47.469Z,57.66
2022-09-09T13:36:50.365Z,57.72
2022-09-09T13:39:54.468Z,57.68
2022-09-09T13:42:59.115Z,57.08
2022-09-09T13:46:07.427Z,57.18
2022-09-09T13:49:12.410Z,57.25
2022-09-09T13:52:18.015Z,57.16
2022-09-09T13:55:25.670Z,56.94
2022-09-09T13:58:28.468Z,57.41
2022-09-09T14:01:31.153Z,57.42
2022-09-09T14:04:33.430Z,57.68
2022-09-09T14:07:35.580Z,58.00
2022-09-09T14:10:38.202Z,57.88
2022-09-09T14:13:40.370Z,58.41
2022-09-09T14:16:42.667Z,58.61
2022-09-09T14:19:46.253Z,58.70
2022-09-09T14:22:48.527Z,58.92
2022-09-09T14:25:50.545Z,58.90
2022-09-09T14:28:55.963Z,58.64
2022-09-09T14:31:58.278Z,58.67
2022-09-09T14:35:00.485Z,58.80
2022-09-09T14:38:02.529Z,58.25
2022-09-09T14:41:04.568Z,58.49
2022-09-09T14:44:06.667Z,58.40
2022-09-09T14:47:09.695Z,58.47
2022-09-09T14:50:13.582Z,58.83
2022-09-09T14:53:18.135Z,59.50
2022-09-09T14:56:23.270Z,59.63
2022-09-09T14:59:25.453Z,59.68
2022-09-09T15:02:28.345Z,59.82
2022-09-09T15:05:31.061Z,60.18
2022-09-09T15:08:33.317Z,60.17
2022-09-09T15:11:40.656Z,60.30
2022-09-09T15:14:42.708Z,60.02
2022-09-09T15:17:44.761Z,60.65
2022-09-09T15:20:48.903Z,60.44
2022-09-09T15:23:52.410Z,60.71
2022-09-09T15:26:55.207Z,61.11
2022-09-09T15:29:59.223Z,60.94
2022-09-09T15:33:01.688Z,60.79
2022-09-09T15:36:14.744Z,60.96
2022-09-09T15:39:18.694Z,60.91
2022-09-09T15:42:20.691Z,60.74
2022-09-09T15:45:22.976Z,60.84
2022-09-09T15:48:33.876Z,61.03
2022-09-09T15:51:44.739Z,61.55
2022-09-09T15:54:46.954Z,61.83
2022-09-09T15:57:49.819Z,62.06
2022-09-09T16:00:52.564Z,61.32
2022-09-09T16:03:55.274Z,60.94
2022-09-09T16:07:04.200Z,61.83
2022-09-09T16:10:07.195Z,62.60
2022-09-09T16:13:09.822Z,62.67
2022-09-09T16:16:13.437Z,63.18
2022-09-09T16:19:15.797Z,63.35
2022-09-09T16:22:19.420Z,64.92
2022-09-09T16:25:22.311Z,66.16
2022-09-09T16:28:24.456Z,65.27
2022-09-09T16:31:27.986Z,64.92
2022-09-09T16:34:30.911Z,66.08
2022-09-09T16:37:35.184Z,67.85
2022-09-09T16:40:38.500Z,68.32
2022-09-09T16:43:41.963Z,67.98
2022-09-09T16:46:49.932Z,68.32
2022-09-09T16:49:52.421Z,67.19
2022-09-09T16:52:54.525Z,65.93
2022-09-09T16:55:56.597Z,64.42
2022-09-09T16:59:00.865Z,64.37
2022-09-09T17:02:05.341Z,64.02
2022-09-09T17:05:07.814Z,63.95
2022-09-09T17:08:10.429Z,63.92
2022-09-09T17:11:17.281Z,64.13
2022-09-09T17:14:23.675Z,64.32
2022-09-09T17:17:32.021Z,64.67
2022-09-09T17:20:46.400Z,64.88
2022-09-09T17:23:50.709Z,64.43
2022-09-09T17:26:53.119Z,65.28
2022-09-09T17:29:55.510Z,64.67
2022-09-09T17:32:57.544Z,65.20
2022-09-09T17:36:00.206Z,65.51
2022-09-09T17:39:04.062Z,67.21
2022-09-09T17:42:08.610Z,68.14
2022-09-09T17:45:11.161Z,67.28
2022-09-09T17:48:13.470Z,67.19
2022-09-09T17:51:20.477Z,67.13
2022-09-09T17:54:22.854Z,69.01
2022-09-09T17:57:26.238Z,68.89
2022-09-09T18:00:31.483Z,68.02
2022-09-09T18:03:37.106Z,68.16
2022-09-09T18:06:41.851Z,68.78
2022-09-09T18:09:44.076Z,71.09
2022-09-09T18:12:46.245Z,73.76
2022-09-09T18:15:49.887Z,75.40
2022-09-09T18:18:52.958Z,75.00
2022-09-09T18:21:57.546Z,74.08
2022-09-09T18:25:02.609Z,73.74
2022-09-09T18:28:04.769Z,74.85
2022-09-09T18:31:12.681Z,74.28
2022-09-09T18:34:18.031Z,73.37
2022-09-09T18:37:20.460Z,73.36
2022-09-09T18:40:22.576Z,73.74
2022-09-09T18:43:24.742Z,73.67
2022-09-09T18:46:30.926Z,73.54
2022-09-09T18:49:33.428Z,73.76
2022-09-09T18:52:35.871Z,72.73
2022-09-09T18:55:38.006Z,72.07
2022-09-09T18:58:40.609Z,72.37
2022-09-09T19:01:42.890Z,72.01
2022-09-09T19:04:45.134Z,71.75
2022-09-09T19:07:47.269Z,71.72
2022-09-09T19:10:49.380Z,71.28
2022-09-09T19:13:53.801Z,71.41
2022-09-09T19:16:56.699Z,70.92
2022-09-09T19:19:58.793Z,71.47
2022-09-09T19:23:00.811Z,71.51
2022-09-09T19:26:03.715Z,71.38
2022-09-09T19:29:05.903Z,71.53
2022-09-09T19:35:31.483Z,70.99
2022-09-09T19:38:34.451Z,71.18
2022-09-09T19:41:37.175Z,70.53
2022-09-09T19:44:39.845Z,70.16
2022-09-09T19:47:43.013Z,70.55
2022-09-09T19:50:45.081Z,70.74
2022-09-09T19:53:53.677Z,69.80
2022-09-09T19:56:55.731Z,69.46
2022-09-09T19:59:57.799Z,69.65
2022-09-09T20:03:18.144Z,69.82
2022-09-09T20:06:24.272Z,69.35
2022-09-09T20:09:29.165Z,69.24
2022-09-09T20:12:31.252Z,68.96
2022-09-09T20:15:33.442Z,69.63
2022-09-09T20:18:38.572Z,69.69
2022-09-09T20:21:47.611Z,69.21
2022-09-09T20:24:50.085Z,69.11
2022-09-09T20:27:53.135Z,69.69
2022-09-09T20:30:55.718Z,69.67
2022-09-09T20:33:58.491Z,69.36
2022-09-09T20:37:02.808Z,69.76
2022-09-09T20:40:05.271Z,70.07
2022-09-09T20:43:07.340Z,69.37
2022-09-09T20:46:10.055Z,69.33
2022-09-09T20:49:12.258Z,69.93
2022-09-09T20:52:15.335Z,69.90
2022-09-09T20:55:17.334Z,69.40
2022-09-09T20:58:19.335Z,68.73
2022-09-09T21:01:22.040Z,68.57
2022-09-09T21:04:25.225Z,68.27
2022-09-09T21:07:29.101Z,67.37
2022-09-09T21:10:31.489Z,67.51
2022-09-09T21:13:37.151Z,67.35
2022-09-09T21:16:39.318Z,66.96
2022-09-09T21:19:41.390Z,67.66
2022-09-09T21:22:43.329Z,68.06
2022-09-09T21:25:45.739Z,68.18
2022-09-09T21:28:47.826Z,67.74
2022-09-09T21:31:49.914Z,68.69
2022-09-09T21:34:52.079Z,67.75
2022-09-09T21:37:54.474Z,68.46
2022-09-09T21:40:56.490Z,68.66
2022-09-09T21:43:59.041Z,67.93
2022-09-09T21:47:01.101Z,68.23
2022-09-09T21:50:03.225Z,68.01
2022-09-09T21:53:06.099Z,67.73
2022-09-09T21:56:11.840Z,67.08
2022-09-09T21:59:13.847Z,66.93
2022-09-09T22:02:17.155Z,66.26
2022-09-09T22:05:19.255Z,66.07
2022-09-09T22:08:21.821Z,66.26
2022-09-09T22:11:24.408Z,65.88
2022-09-09T22:14:27.539Z,66.04
2022-09-09T22:17:30.318Z,66.27
2022-09-09T22:20:33.983Z,66.77
2022-09-09T22:23:36.827Z,66.07
2022-09-09T22:26:39.438Z,66.83
2022-09-09T22:29:41.880Z,66.64
2022-09-09T22:32:44.117Z,66.47
2022-09-09T22:35:46.172Z,67.09
2022-09-09T22:38:49.715Z,66.75
2022-09-09T22:41:51.783Z,66.44
2022-09-09T22:44:53.819Z,66.06
2022-09-09T22:47:57.292Z,65.81
2022-09-09T22:51:11.384Z,65.17
2022-09-09T22:54:13.565Z,65.98
2022-09-09T22:57:15.618Z,65.50
2022-09-09T23:00:18.569Z,65.69
2022-09-09T23:03:22.643Z,65.46
2022-09-09T23:06:27.509Z,65.25
2022-09-09T23:09:29.557Z,66.10
2022-09-09T23:12:31.739Z,65.21
2022-09-09T23:15:33.783Z,65.83
2022-09-09T23:18:37.256Z,66.49
2022-09-09T23:21:41.215Z,65.58
2022-09-09T23:24:43.394Z,66.18
2022-09-09T23:27:45.847Z,66.13
2022-09-09T23:30:47.977Z,66.25
2022-09-09T23:33:50.079Z,66.21
2022-09-09T23:36:53.741Z,66.89
2022-09-09T23:39:55.772Z,66.30
2022-09-09T23:42:57.825Z,65.70
2022-09-09T23:46:01.430Z,65.87
2022-09-09T23:49:04.580Z,65.72
2022-09-09T23:52:07.110Z,65.77
2022-09-09T23:55:09.450Z,65.28
2022-09-09T23:58:11.637Z,64.96
